Parks, Arizona
Current Conditions -  °F | °C
As of 2:57 PM on Monday 20 Oct 2014 (Local Time) from KFLG Reporting Station
Clear Clear  
Wind Chill: 16°   Ceiling: Unl
Heat Index: 16°   Visibility: 10mi
Dew Point:   Wind: 14mph
Humidity: 47%   Direction: 210°SSW
Pressure: 30.17"   Gusts: NA
Location:  35.26°N, 111.95°W
Report Text: KFLG 202157Z 21012KT 10SM CLR 16/04 A3017 RMK AO2 SLP158 T01560044
Loading
Personal Weather Stations






























Interactive Weather Map
Tropical Storm Tracking
New forecast layout! Learn more

10-Day Weather Forecast

Advertisements
Track Severe Weather on mobile